createdAt,value
2018-06-01T00:01:15.017Z,28.00
2018-06-01T00:03:42.872Z,29.40
2018-06-01T00:06:10.738Z,27.87
2018-06-01T00:08:38.588Z,30.67
2018-06-01T00:11:06.473Z,28.57
2018-06-01T00:13:34.326Z,27.40
2018-06-01T00:16:02.210Z,26.90
2018-06-01T00:18:30.047Z,27.53
2018-06-01T00:20:57.890Z,28.27
2018-06-01T00:23:25.758Z,28.43
2018-06-01T00:25:53.595Z,29.90
2018-06-01T00:28:21.489Z,30.00
2018-06-01T00:30:49.342Z,29.20
2018-06-01T00:33:17.207Z,28.70
2018-06-01T00:35:45.079Z,30.13
2018-06-01T00:38:12.955Z,31.23
2018-06-01T00:40:41.044Z,30.57
2018-06-01T00:43:09.081Z,32.00
2018-06-01T00:45:36.941Z,30.47
2018-06-01T00:48:04.798Z,29.63
2018-06-01T00:50:32.653Z,27.97
2018-06-01T00:53:00.522Z,29.10
2018-06-01T00:55:28.437Z,28.73
2018-06-01T00:57:56.292Z,28.70
2018-06-01T01:00:24.240Z,29.83
2018-06-01T01:02:52.110Z,29.50
2018-06-01T01:05:19.982Z,29.23
2018-06-01T01:07:47.817Z,27.10
2018-06-01T01:10:15.689Z,28.17
2018-06-01T01:12:43.642Z,27.90
2018-06-01T01:15:11.499Z,28.30
2018-06-01T01:17:39.389Z,28.80
2018-06-01T01:20:07.234Z,27.37
2018-06-01T01:22:35.100Z,26.53
2018-06-01T01:25:02.962Z,27.03
2018-06-01T01:27:30.849Z,29.20
2018-06-01T01:29:58.694Z,28.27
2018-06-01T01:32:26.555Z,27.13
2018-06-01T01:34:54.410Z,27.57
2018-06-01T01:37:26.268Z,28.70
2018-06-01T01:39:54.157Z,28.83
2018-06-01T01:42:21.999Z,27.80
2018-06-01T01:44:49.846Z,28.13
2018-06-01T01:47:17.736Z,27.90
2018-06-01T01:49:51.680Z,27.27
2018-06-01T01:52:19.523Z,26.17
2018-06-01T01:54:47.501Z,27.20
2018-06-01T01:57:15.377Z,27.47
2018-06-01T01:59:43.277Z,26.43
2018-06-01T02:02:11.154Z,27.50
2018-06-01T02:04:39.010Z,27.83
2018-06-01T02:07:06.923Z,27.30
2018-06-01T02:09:34.887Z,26.13
2018-06-01T02:12:02.778Z,27.00
2018-06-01T02:14:30.665Z,28.43
2018-06-01T02:16:58.569Z,28.10
2018-06-01T02:19:26.413Z,29.20
2018-06-01T02:21:54.296Z,29.17
2018-06-01T02:24:22.153Z,29.00
2018-06-01T02:26:50.007Z,27.00
2018-06-01T02:29:17.849Z,27.93
2018-06-01T02:31:45.737Z,28.27
2018-06-01T02:34:13.607Z,27.43
2018-06-01T02:36:41.488Z,27.80
2018-06-01T02:39:09.357Z,27.90
2018-06-01T02:41:37.255Z,26.77
2018-06-01T02:44:05.132Z,28.70
2018-06-01T02:46:33.052Z,28.87
2018-06-01T02:49:00.928Z,27.03
2018-06-01T02:51:28.843Z,25.87
2018-06-01T02:53:56.780Z,25.43
2018-06-01T02:56:24.673Z,24.60
2018-06-01T02:58:52.557Z,25.50
2018-06-01T03:01:20.440Z,24.97
2018-06-01T03:03:48.308Z,23.97
2018-06-01T03:06:16.162Z,25.03
2018-06-01T03:08:44.036Z,23.50
2018-06-01T03:11:11.881Z,24.83
2018-06-01T03:13:39.734Z,24.63
2018-06-01T03:16:07.633Z,26.00
2018-06-01T03:18:35.489Z,25.33
2018-06-01T03:23:37.857Z,24.30
2018-06-01T03:26:05.770Z,23.87
2018-06-01T03:28:33.678Z,24.00
2018-06-01T03:31:01.613Z,24.53
2018-06-01T03:33:29.544Z,23.30
2018-06-01T03:35:57.392Z,23.97
2018-06-01T03:38:25.262Z,26.20
2018-06-01T03:40:53.106Z,26.20
2018-06-01T03:43:20.968Z,24.13
2018-06-01T03:45:48.836Z,24.70
2018-06-01T03:48:16.734Z,26.70
2018-06-01T03:50:44.580Z,25.00
2018-06-01T03:53:12.437Z,25.80
2018-06-01T03:55:40.332Z,25.03
2018-06-01T03:58:08.198Z,26.03
2018-06-01T04:00:36.294Z,25.97
2018-06-01T04:03:04.167Z,24.90
2018-06-01T04:05:32.037Z,25.17
2018-06-01T04:07:59.919Z,26.30
2018-06-01T04:10:27.800Z,26.83
2018-06-01T04:12:55.705Z,27.53
2018-06-01T04:15:23.553Z,27.70
2018-06-01T04:17:51.491Z,25.50
2018-06-01T04:20:19.353Z,25.33
2018-06-01T04:22:47.273Z,27.10
2018-06-01T04:25:15.303Z,26.80
2018-06-01T04:27:44.161Z,24.83
2018-06-01T04:30:11.966Z,27.53
2018-06-01T04:32:39.827Z,26.77
2018-06-01T04:35:07.716Z,27.70
2018-06-01T04:37:35.590Z,27.10
2018-06-01T04:40:03.736Z,25.97
2018-06-01T04:42:31.589Z,23.80
2018-06-01T04:44:59.460Z,25.67
2018-06-01T04:47:27.329Z,23.00
2018-06-01T04:49:55.182Z,25.13
2018-06-01T04:52:23.072Z,23.47
2018-06-01T04:54:50.925Z,23.90
2018-06-01T04:57:18.818Z,22.63
2018-06-01T04:59:46.690Z,23.00
2018-06-01T05:02:14.533Z,22.90
2018-06-01T05:04:42.409Z,23.57
2018-06-01T05:07:10.264Z,23.43
2018-06-01T05:09:38.097Z,25.50
2018-06-01T05:12:06.010Z,24.60
2018-06-01T05:14:33.905Z,24.00
2018-06-01T05:17:01.796Z,24.70
2018-06-01T05:19:29.683Z,25.70
2018-06-01T05:21:57.533Z,23.30
2018-06-01T05:24:25.412Z,22.13
2018-06-01T05:26:53.313Z,21.03
2018-06-01T05:29:21.181Z,19.77
2018-06-01T05:31:49.046Z,19.20
2018-06-01T05:34:16.895Z,18.97
2018-06-01T05:36:44.790Z,17.57
2018-06-01T05:39:12.681Z,16.13
2018-06-01T05:41:40.570Z,15.83
2018-06-01T05:44:08.453Z,16.60
2018-06-01T05:46:36.422Z,13.93
2018-06-01T05:49:04.286Z,14.60
2018-06-01T05:51:32.162Z,13.50
2018-06-01T05:54:00.013Z,13.90
2018-06-01T05:56:27.932Z,14.40
2018-06-01T05:58:55.793Z,13.80
2018-06-01T06:01:23.645Z,13.40
2018-06-01T06:03:51.511Z,14.00
2018-06-01T06:06:26.429Z,14.00
2018-06-01T06:08:54.274Z,13.20
2018-06-01T06:11:22.125Z,12.40
2018-06-01T06:13:50.010Z,13.10
2018-06-01T06:16:17.855Z,13.90
2018-06-01T06:18:45.757Z,15.03
2018-06-01T06:21:13.620Z,14.03
2018-06-01T06:23:41.592Z,14.07
2018-06-01T06:26:09.441Z,13.70
2018-06-01T06:28:37.305Z,13.97
2018-06-01T06:31:05.171Z,13.93
2018-06-01T06:33:33.017Z,14.20
2018-06-01T06:36:00.898Z,13.17
2018-06-01T06:38:28.730Z,12.93
2018-06-01T06:40:56.586Z,13.00
2018-06-01T06:43:24.454Z,12.00
2018-06-01T06:45:52.331Z,13.73
2018-06-01T06:48:20.253Z,12.00
2018-06-01T06:50:48.118Z,13.10
2018-06-01T06:53:15.992Z,13.30
2018-06-01T06:55:43.844Z,13.27
2018-06-01T06:58:11.693Z,13.93
2018-06-01T07:00:39.536Z,13.20
2018-06-01T07:03:07.385Z,12.73
2018-06-01T07:05:35.237Z,12.70
2018-06-01T07:08:03.110Z,12.60
2018-06-01T07:10:30.963Z,12.97
2018-06-01T07:12:58.842Z,12.87
2018-06-01T07:15:26.709Z,11.73
2018-06-01T07:17:54.621Z,13.90
2018-06-01T07:20:22.539Z,12.97
2018-06-01T07:22:50.366Z,12.13
2018-06-01T07:25:18.274Z,14.67
2018-06-01T07:27:46.207Z,14.53
2018-06-01T07:30:14.028Z,14.90
2018-06-01T07:32:41.893Z,16.03
2018-06-01T07:35:09.745Z,16.03
2018-06-01T07:37:37.637Z,15.50
2018-06-01T07:40:05.482Z,14.90
2018-06-01T07:42:33.337Z,14.67
2018-06-01T07:45:01.225Z,14.47
2018-06-01T07:47:29.065Z,16.13
2018-06-01T07:49:56.930Z,16.53
2018-06-01T07:52:24.802Z,14.20
2018-06-01T07:54:52.697Z,15.60
2018-06-01T07:57:20.554Z,16.87
2018-06-01T07:59:48.397Z,16.90
2018-06-01T08:02:16.269Z,16.67
2018-06-01T08:04:44.105Z,16.87
2018-06-01T08:07:11.973Z,18.20
2018-06-01T08:09:39.842Z,17.07
2018-06-01T08:12:07.707Z,16.33
2018-06-01T08:14:35.564Z,17.03
2018-06-01T08:17:03.461Z,17.77
2018-06-01T08:19:31.309Z,16.87
2018-06-01T08:21:59.199Z,15.90
2018-06-01T08:24:27.049Z,16.70
2018-06-01T08:26:54.925Z,16.20
2018-06-01T08:29:22.785Z,16.90
2018-06-01T08:31:50.660Z,16.23
2018-06-01T08:34:18.529Z,17.50
2018-06-01T08:36:46.392Z,17.30
2018-06-01T08:39:15.305Z,17.80
2018-06-01T08:41:43.296Z,18.60
2018-06-01T08:44:11.177Z,18.50
2018-06-01T08:46:39.089Z,19.13
2018-06-01T08:49:06.953Z,19.53
2018-06-01T08:51:34.802Z,18.07
2018-06-01T08:54:02.648Z,17.90
2018-06-01T08:56:30.518Z,18.50
2018-06-01T08:58:58.431Z,18.00
2018-06-01T09:01:26.237Z,17.73
2018-06-01T09:03:54.325Z,16.47
2018-06-01T09:06:22.237Z,15.70
2018-06-01T09:08:50.165Z,16.13
2018-06-01T09:11:18.009Z,14.03
2018-06-01T09:13:45.869Z,12.40
2018-06-01T09:16:13.714Z,11.10
2018-06-01T09:18:41.593Z,10.97
2018-06-01T09:21:09.429Z,11.53
2018-06-01T09:23:37.485Z,11.00
2018-06-01T09:26:05.346Z,12.53
2018-06-01T09:28:33.200Z,11.03
2018-06-01T09:31:01.033Z,12.63
2018-06-01T09:33:28.869Z,11.87
2018-06-01T09:35:56.729Z,13.23
2018-06-01T09:38:24.576Z,13.93
2018-06-01T09:40:52.428Z,14.57
2018-06-01T09:43:20.292Z,15.57
2018-06-01T09:45:48.191Z,16.33
2018-06-01T09:48:16.037Z,16.60
2018-06-01T09:50:43.922Z,18.00
2018-06-01T09:53:11.764Z,16.97
2018-06-01T09:55:39.641Z,18.87
2018-06-01T09:58:07.488Z,19.70
2018-06-01T10:00:41.880Z,18.70
2018-06-01T10:03:09.740Z,19.43
2018-06-01T10:05:37.596Z,18.60
2018-06-01T10:08:05.457Z,19.60
2018-06-01T10:10:36.357Z,18.63
2018-06-01T10:13:04.221Z,19.20
2018-06-01T10:15:32.172Z,18.27
2018-06-01T10:18:00.026Z,19.33
2018-06-01T10:20:27.877Z,18.03
2018-06-01T10:22:55.742Z,18.77
2018-06-01T10:25:23.603Z,17.00
2018-06-01T10:27:51.467Z,16.47
2018-06-01T10:30:19.328Z,15.63
2018-06-01T10:32:47.199Z,15.03
2018-06-01T10:35:15.090Z,14.67
2018-06-01T10:37:42.938Z,14.87
2018-06-01T10:40:10.819Z,13.90
2018-06-01T10:42:38.670Z,15.00
2018-06-01T10:45:06.541Z,14.23
2018-06-01T10:47:34.417Z,13.30
2018-06-01T10:50:02.330Z,14.03
2018-06-01T10:52:30.240Z,13.73
2018-06-01T10:54:58.146Z,15.27
2018-06-01T10:57:26.033Z,15.30
2018-06-01T10:59:53.915Z,14.60
2018-06-01T11:02:21.777Z,11.30
2018-06-01T11:04:49.653Z,12.00
2018-06-01T11:07:17.545Z,9.37
2018-06-01T11:09:45.461Z,9.27
2018-06-01T11:12:13.353Z,7.80
2018-06-01T11:14:41.227Z,7.20
2018-06-01T11:17:09.109Z,7.43
2018-06-01T11:19:36.949Z,7.23
2018-06-01T11:22:04.837Z,8.40
2018-06-01T11:24:32.700Z,7.63
2018-06-01T11:27:00.594Z,7.27
2018-06-01T11:29:28.445Z,7.70
2018-06-01T11:31:56.307Z,7.40
2018-06-01T11:34:24.236Z,7.50
2018-06-01T11:36:52.090Z,7.60
2018-06-01T11:39:19.934Z,7.57
2018-06-01T11:41:47.797Z,7.73
2018-06-01T11:44:15.666Z,7.77
2018-06-01T11:46:43.517Z,6.97
2018-06-01T11:49:11.389Z,7.77
2018-06-01T11:54:13.758Z,36.77
2018-06-01T11:56:41.631Z,12.90
2018-06-01T11:59:09.486Z,9.60
2018-06-01T12:01:37.437Z,8.00
2018-06-01T12:04:05.319Z,8.97
2018-06-01T12:06:33.181Z,9.57
2018-06-01T12:09:01.069Z,9.10
2018-06-01T12:11:28.919Z,9.80
2018-06-01T12:13:56.770Z,9.30
2018-06-01T12:16:24.629Z,10.53
2018-06-01T12:18:52.485Z,12.67
2018-06-01T12:21:20.341Z,15.60
2018-06-01T12:23:48.222Z,16.37
2018-06-01T12:26:16.077Z,16.83
2018-06-01T12:28:43.955Z,18.13
2018-06-01T12:31:11.798Z,19.20
2018-06-01T12:33:39.649Z,22.53
2018-06-01T12:36:07.491Z,22.17
2018-06-01T12:38:35.350Z,22.33
2018-06-01T12:41:03.207Z,23.93
2018-06-01T12:43:31.061Z,22.57
2018-06-01T12:45:58.908Z,22.10
2018-06-01T12:48:26.745Z,21.40
2018-06-01T12:50:54.620Z,20.37
2018-06-01T12:53:22.513Z,24.57
2018-06-01T12:55:50.402Z,20.17
2018-06-01T12:58:18.284Z,18.40
2018-06-01T13:00:46.160Z,19.57
2018-06-01T13:03:14.069Z,19.00
2018-06-01T13:05:41.926Z,20.00
2018-06-01T13:08:09.861Z,18.97
2018-06-01T13:10:37.796Z,18.60
2018-06-01T13:13:05.699Z,18.50
2018-06-01T13:15:33.578Z,18.53
2018-06-01T13:18:01.462Z,17.40
2018-06-01T13:20:29.420Z,17.60
2018-06-01T13:22:57.316Z,17.33
2018-06-01T13:25:25.224Z,16.73
2018-06-01T13:27:53.138Z,16.17
2018-06-01T13:30:21.066Z,15.43
2018-06-01T13:32:48.925Z,18.23
2018-06-01T13:35:16.797Z,17.23
2018-06-01T13:37:44.738Z,18.27
2018-06-01T13:40:12.608Z,16.40
2018-06-01T13:42:40.457Z,15.30
2018-06-01T13:45:08.333Z,15.43
2018-06-01T13:47:36.249Z,15.47
2018-06-01T13:50:04.286Z,16.60
2018-06-01T13:52:32.193Z,15.17
2018-06-01T13:55:00.114Z,15.20
2018-06-01T13:57:27.977Z,14.73
2018-06-01T13:59:55.869Z,15.80
2018-06-01T14:02:23.786Z,16.67
2018-06-01T14:04:51.632Z,15.07
2018-06-01T14:07:19.492Z,14.57
2018-06-01T14:09:47.370Z,14.80
2018-06-01T14:12:15.222Z,14.17
2018-06-01T14:14:43.078Z,13.40
2018-06-01T14:17:10.963Z,13.73
2018-06-01T14:19:38.801Z,14.50
2018-06-01T14:22:06.679Z,15.13
2018-06-01T14:24:34.556Z,15.57
2018-06-01T14:27:02.465Z,16.90
2018-06-01T14:29:30.312Z,15.77
2018-06-01T14:31:58.174Z,15.77
2018-06-01T14:34:26.041Z,16.43
2018-06-01T14:36:53.916Z,15.77
2018-06-01T14:39:21.781Z,16.47
2018-06-01T14:41:49.645Z,15.20
2018-06-01T14:44:17.497Z,15.30
2018-06-01T14:46:45.357Z,15.53
2018-06-01T14:49:13.223Z,14.80
2018-06-01T14:51:41.122Z,14.20
2018-06-01T14:54:09.000Z,12.70
2018-06-01T14:56:36.855Z,13.23
2018-06-01T14:59:04.718Z,13.67
2018-06-01T15:01:32.568Z,12.27
2018-06-01T15:04:00.450Z,13.17
2018-06-01T15:06:28.288Z,13.10
2018-06-01T15:08:56.177Z,14.07
2018-06-01T15:11:24.029Z,13.20
2018-06-01T15:13:51.902Z,14.77
2018-06-01T15:16:19.805Z,14.00
2018-06-01T15:18:47.693Z,14.37
2018-06-01T15:21:15.546Z,13.97
2018-06-01T15:23:43.414Z,13.23
2018-06-01T15:26:11.297Z,13.40
2018-06-01T15:28:47.292Z,12.43
2018-06-01T15:31:15.174Z,12.53
2018-06-01T15:33:43.111Z,11.33
2018-06-01T15:36:11.000Z,11.43
2018-06-01T15:38:38.841Z,10.70
2018-06-01T15:41:06.735Z,11.40
2018-06-01T15:43:34.563Z,10.17
2018-06-01T15:46:02.436Z,10.37
2018-06-01T15:48:30.316Z,8.30
2018-06-01T15:50:58.207Z,8.97
2018-06-01T15:53:26.077Z,9.10
2018-06-01T15:55:53.992Z,8.93
2018-06-01T15:58:21.859Z,8.60
2018-06-01T16:00:49.730Z,7.53
2018-06-01T16:03:17.603Z,8.97
2018-06-01T16:05:45.448Z,8.90
2018-06-01T16:08:13.380Z,8.93
2018-06-01T16:10:41.265Z,8.23
2018-06-01T16:13:09.393Z,8.23
2018-06-01T16:15:37.245Z,9.27
2018-06-01T16:18:05.158Z,9.10
2018-06-01T16:20:32.991Z,8.80
2018-06-01T16:23:00.845Z,7.70
2018-06-01T16:25:28.761Z,7.13
2018-06-01T16:27:56.612Z,6.97
2018-06-01T16:30:24.493Z,7.63
2018-06-01T16:32:52.380Z,6.90
2018-06-01T16:35:20.225Z,7.67
2018-06-01T16:37:48.087Z,7.73
2018-06-01T16:40:15.948Z,7.20
2018-06-01T16:42:43.817Z,6.87
2018-06-01T16:45:11.777Z,7.03
2018-06-01T16:47:39.671Z,7.63
2018-06-01T16:50:07.566Z,7.83
2018-06-01T16:52:35.972Z,8.03
2018-06-01T16:55:03.841Z,7.13
2018-06-01T16:57:31.997Z,9.80
2018-06-01T16:59:59.838Z,8.27
2018-06-01T17:02:27.713Z,8.60
2018-06-01T17:04:55.902Z,9.73
2018-06-01T17:07:23.767Z,8.43
2018-06-01T17:09:51.657Z,8.70
2018-06-01T17:12:19.513Z,8.80
2018-06-01T17:14:47.377Z,9.00
2018-06-01T17:17:15.294Z,9.70
2018-06-01T17:19:43.153Z,9.73
2018-06-01T17:22:11.025Z,7.60
2018-06-01T17:24:38.937Z,8.83
2018-06-01T17:27:06.781Z,8.77
2018-06-01T17:29:34.638Z,7.90
2018-06-01T17:32:02.548Z,8.23
2018-06-01T17:34:30.387Z,7.77
2018-06-01T17:36:58.713Z,7.30
2018-06-01T17:39:29.170Z,6.77
2018-06-01T17:41:57.055Z,7.73
2018-06-01T17:44:24.905Z,6.63
2018-06-01T17:46:52.832Z,6.53
2018-06-01T17:49:20.691Z,7.03
2018-06-01T17:51:48.598Z,6.27
2018-06-01T17:54:16.473Z,5.63
2018-06-01T17:56:44.362Z,6.63
2018-06-01T17:59:12.209Z,6.83
2018-06-01T18:01:40.071Z,6.30
2018-06-01T18:04:07.929Z,6.37
2018-06-01T18:06:35.817Z,6.87
2018-06-01T18:09:04.438Z,6.90
2018-06-01T18:11:32.296Z,7.00
2018-06-01T18:14:00.186Z,6.07
2018-06-01T18:16:28.053Z,6.20
2018-06-01T18:18:55.956Z,5.40
2018-06-01T18:21:23.806Z,5.90
2018-06-01T18:23:51.648Z,6.30
2018-06-01T18:26:19.516Z,7.50
2018-06-01T18:28:47.397Z,6.50
2018-06-01T18:31:15.325Z,6.27
2018-06-01T18:33:43.177Z,6.60
2018-06-01T18:36:11.046Z,6.27
2018-06-01T18:38:38.913Z,6.40
2018-06-01T18:41:06.783Z,7.03
2018-06-01T18:43:34.657Z,7.00
2018-06-01T18:46:02.507Z,7.13
2018-06-01T18:48:30.408Z,7.03
2018-06-01T18:50:58.311Z,8.20
2018-06-01T18:53:26.181Z,7.07
2018-06-01T18:55:54.017Z,7.27
2018-06-01T18:58:22.128Z,7.63
2018-06-01T19:00:49.989Z,7.47
2018-06-01T19:03:17.827Z,8.40
2018-06-01T19:05:45.681Z,7.27
2018-06-01T19:08:13.520Z,6.97
2018-06-01T19:10:41.389Z,7.43
2018-06-01T19:13:09.229Z,8.17
2018-06-01T19:15:37.076Z,7.10
2018-06-01T19:18:04.936Z,8.10
2018-06-01T19:20:32.777Z,7.00
2018-06-01T19:23:00.625Z,7.67
2018-06-01T19:25:28.553Z,7.83
2018-06-01T19:27:56.404Z,8.43
2018-06-01T19:30:24.321Z,8.37
2018-06-01T19:32:52.168Z,8.60
2018-06-01T19:35:20.849Z,8.80
2018-06-01T19:37:48.710Z,8.20
2018-06-01T19:40:16.573Z,9.90
2018-06-01T19:42:44.645Z,9.50
2018-06-01T19:45:12.501Z,9.73
2018-06-01T19:47:40.404Z,9.40
2018-06-01T19:50:08.302Z,9.80
2018-06-01T19:52:36.155Z,10.87
2018-06-01T19:55:04.037Z,11.87
2018-06-01T19:57:31.969Z,11.17
2018-06-01T19:59:59.831Z,12.60
2018-06-01T20:02:27.700Z,9.83
2018-06-01T20:04:55.610Z,10.30
2018-06-01T20:07:23.459Z,10.73
2018-06-01T20:09:51.316Z,10.70
2018-06-01T20:12:19.185Z,11.63
2018-06-01T20:14:47.020Z,10.70
2018-06-01T20:17:14.883Z,11.60
2018-06-01T20:19:42.741Z,12.13
2018-06-01T20:22:10.601Z,12.43
2018-06-01T20:24:38.448Z,11.83
2018-06-01T20:27:06.428Z,12.00
2018-06-01T20:29:34.277Z,11.80
2018-06-01T20:32:02.113Z,12.33
2018-06-01T20:34:29.997Z,12.67
2018-06-01T20:36:57.833Z,12.10
2018-06-01T20:39:25.678Z,11.77
2018-06-01T20:41:53.537Z,13.00
2018-06-01T20:44:21.410Z,13.30
2018-06-01T20:46:49.269Z,13.57
2018-06-01T20:49:17.149Z,13.70
2018-06-01T20:51:45.000Z,13.20
2018-06-01T20:54:12.850Z,13.47
2018-06-01T20:56:40.766Z,12.60
2018-06-01T20:59:08.601Z,14.40
2018-06-01T21:01:36.471Z,13.60
2018-06-01T21:04:04.321Z,14.03
2018-06-01T21:06:32.209Z,13.40
2018-06-01T21:09:00.081Z,13.00
2018-06-01T21:11:28.034Z,12.20
2018-06-01T21:13:55.878Z,11.90
2018-06-01T21:16:23.752Z,13.20
2018-06-01T21:18:51.609Z,12.60
2018-06-01T21:21:19.503Z,14.20
2018-06-01T21:23:47.334Z,15.60
2018-06-01T21:26:15.195Z,14.90
2018-06-01T21:28:43.046Z,16.17
2018-06-01T21:31:10.905Z,14.37
2018-06-01T21:33:38.788Z,13.87
2018-06-01T21:36:06.689Z,14.43
2018-06-01T21:38:34.525Z,12.97
2018-06-01T21:41:02.365Z,12.57
2018-06-01T21:43:30.226Z,12.60
2018-06-01T21:45:58.089Z,13.30
2018-06-01T21:48:25.941Z,13.07
2018-06-01T21:50:53.789Z,13.80
2018-06-01T21:53:21.624Z,13.97
2018-06-01T21:55:49.473Z,15.20
2018-06-01T21:58:17.333Z,14.83
2018-06-01T22:00:45.177Z,14.90
2018-06-01T22:03:13.036Z,14.60
2018-06-01T22:05:40.880Z,14.40
2018-06-01T22:08:08.725Z,14.33
2018-06-01T22:10:36.565Z,13.40
2018-06-01T22:13:04.430Z,15.70
2018-06-01T22:15:32.317Z,16.33
2018-06-01T22:18:00.165Z,15.20
2018-06-01T22:20:28.025Z,15.70
2018-06-01T22:22:55.869Z,15.70
2018-06-01T22:25:23.706Z,15.30
2018-06-01T22:27:51.584Z,15.93
2018-06-01T22:30:19.514Z,17.27
2018-06-01T22:32:47.361Z,16.80
2018-06-01T22:35:15.248Z,16.20
2018-06-01T22:37:43.125Z,19.33
2018-06-01T22:40:11.037Z,19.07
2018-06-01T22:42:38.930Z,18.30
2018-06-01T22:45:06.773Z,19.13
2018-06-01T22:47:34.617Z,18.90
2018-06-01T22:50:02.482Z,20.27
2018-06-01T22:52:30.320Z,19.30
2018-06-01T22:54:58.155Z,19.00
2018-06-01T22:57:26.029Z,18.60
2018-06-01T22:59:53.908Z,20.20
2018-06-01T23:02:21.761Z,20.50
2018-06-01T23:04:49.838Z,20.57
2018-06-01T23:07:17.681Z,20.23
2018-06-01T23:09:45.525Z,19.87
2018-06-01T23:12:13.424Z,21.20
2018-06-01T23:14:41.281Z,20.70
2018-06-01T23:17:09.121Z,20.47
2018-06-01T23:19:36.972Z,18.60
2018-06-01T23:22:04.859Z,19.53
2018-06-01T23:24:32.693Z,20.47
2018-06-01T23:27:00.557Z,21.77
2018-06-01T23:29:28.405Z,19.67
2018-06-01T23:31:56.256Z,19.63
2018-06-01T23:34:24.116Z,19.20
2018-06-01T23:36:51.949Z,21.37
2018-06-01T23:39:19.804Z,19.30
2018-06-01T23:41:47.811Z,20.20
2018-06-01T23:44:15.671Z,19.80
2018-06-01T23:46:43.532Z,19.70
2018-06-01T23:49:11.380Z,21.43
2018-06-01T23:51:39.242Z,20.10
2018-06-01T23:54:07.118Z,21.00
2018-06-01T23:56:34.961Z,19.87
2018-06-01T23:59:02.816Z,23.40
